• Join FlightAware (Why Join?)
  • Login
  • US Flag 
10:56AM EDT


 

Airport Tracker/Info


-or-


 

Live Flight TrackerFlight Track Log ✈ SWA3450 ✈ 14-Dec-2013 ✈ KMDW - KPHL

Flight Track Log - Related Links

Times and Time Zones

All times are in EST time to prevent confusion due to time zone crossing. See the SWA3450 flight status page for this flight to view local times or setup timezone preferences in your user account.

Time Position Orientation Groundspeed Altitude Reporting Facility
EST Latitude Longitude Course Direction KTS MPH feet Rate Location/Type
08:47PM 41.8167 -87.7667 90° East 172 198 2,500  Level Chicago TRACON
08:48PM 41.8167 -87.6833 90° East 234 269 3,700 1,920 Climbing Chicago TRACON
08:50PM 41.8086 -87.5747 96° East 249 287 7,000 3,000 Climbing Chicago Center
08:51PM 41.7992 -87.4631 96° East 286 329 10,800 3,240 Climbing Chicago Center
08:52PM 41.7872 -87.3433 98° East 314 361 13,700 2,880 Climbing Chicago Center
08:53PM 41.6922 -86.8103 90° East  Level Estimated
08:53PM 41.7733 -87.1794 96° East 365 420 16,700  Level Chicago Center
08:54PM 41.7614 -87.0281 96° East 403 464 18,500 2,040 Climbing Chicago Center
08:55PM 41.7642 -86.8636 89° East 436 502 20,900 2,400 Climbing Chicago Center
08:56PM 41.7633 -86.6958 90° East 447 514 23,400 2,160 Climbing Chicago Center
08:57PM 41.7639 -86.5500 90° East 456 525 25,300 1,920 Climbing Chicago Center
08:58PM 41.7661 -86.3389 89° East 470 541 27,300 1,740 Climbing Chicago Center
08:59PM 41.7686 -86.1575 89° East 482 555 28,900 1,560 Climbing Chicago Center
09:00PM 41.7728 -85.9728 88° East 493 567 30,500 1,680 Climbing Chicago Center
09:01PM 41.7744 -85.7856 89° East 499 574 32,400 1,620 Climbing Chicago Center
09:02PM 41.7753 -85.5972 90° East 500 575 33,800 1,380 Climbing Chicago Center
09:03PM 41.7758 -85.4050 90° East 503 579 35,300 1,380 Climbing Chicago Center
09:04PM 41.7769 -85.2153 89° East 500 575 36,600 1,140 Climbing Chicago Center
09:05PM 41.7789 -85.0269 89° East 501 577 37,700 900 Climbing Chicago Center
09:06PM 41.7786 -84.8372 90° East 510 587 38,500 600 Climbing Chicago Center
09:07PM 41.7783 -84.6458 90° East 513 590 39,000 240 Climbing Chicago Center
09:08PM 41.7781 -84.4944 90° East 510 587 39,000  Level Cleveland Center
09:09PM 41.7778 -84.3061 90° East 508 585 39,000  Level Cleveland Center
09:10PM 41.7761 -84.1214 91° East 510 587 39,000  Level Cleveland Center
09:11PM 41.7753 -83.9331 90° East 512 589 39,000  Level Cleveland Center
09:12PM 41.7397 -83.7181 102° East 500 575 39,000  Level Cleveland Center
09:13PM 41.6986 -83.5422 107° East 501 577 39,000  Level Cleveland Center
09:14PM 41.6558 -83.3664 108° East 502 578 39,000  Level Cleveland Center
09:15PM 41.6125 -83.1917 108° East 501 577 39,000  Level Cleveland Center
09:16PM 41.5717 -83.0275 108° East 500 575 39,000  Level Cleveland Center
09:17PM 41.5269 -82.8531 109° East 497 572 39,000  Level Cleveland Center
09:18PM 41.4828 -82.6781 109° East 495 570 39,000  Level Cleveland Center
09:19PM 41.4386 -82.5022 108° East 497 572 39,000  Level Cleveland Center
09:20PM 41.3942 -82.3283 109° East 496 571 39,000  Level Cleveland Center
09:21PM 41.3411 -82.1244 109° East 499 574 39,000  Level Cleveland Center
09:22PM 41.3019 -81.9764 109° East 500 575 39,000  Level Cleveland Center
09:23PM 41.2572 -81.8014 109° East 500 575 39,000  Level Cleveland Center
09:24PM 41.2100 -81.6289 110° East 499 574 39,000  Level Cleveland Center
09:25PM 41.1639 -81.4544 109° East 501 577 39,000  Level Cleveland Center
09:26PM 41.1125 -81.2617 109° East 499 574 39,000  Level Cleveland Center
09:27PM 41.0658 -81.0881 110° East 498 573 39,000  Level Cleveland Center
09:28PM 41.0125 -80.9011 111° Southeast 501 577 39,000  Level Cleveland Center
09:29PM 40.9656 -80.7292 110° East 499 574 39,000  Level Cleveland Center
09:30PM 40.9189 -80.5561 110° East 497 572 39,000  Level Cleveland Center
09:31PM 40.8717 -80.3806 110° East 503 579 39,000  Level Cleveland Center
09:32PM 40.8244 -80.2144 111° Southeast 501 577 39,000  Level Cleveland Center
09:33PM 40.7672 -80.0517 115° Southeast 493 567 39,000  Level Cleveland Center
09:34PM 40.7025 -79.8792 116° Southeast 494 568 39,000  Level Cleveland Center
09:35PM 40.6433 -79.7153 115° Southeast 492 566 39,000  Level Cleveland Center
09:36PM 40.5869 -79.5503 114° Southeast 492 566 39,000  Level Cleveland Center
09:37PM 40.5597 -79.3625 101° East 521 600 39,000  Level Cleveland Center
09:38PM 40.5361 -79.1581 99° East 525 604 39,000  Level Cleveland Center
09:39PM 40.5142 -78.9694 99° East 527 606 39,000  Level Cleveland Center
09:40PM 40.4928 -78.7822 98° East 526 605 39,000  Level Cleveland Center
09:41PM 40.4694 -78.5956 99° East 525 604 39,000  Level Cleveland Center
09:42PM 40.4456 -78.4072 99° East 527 606 39,000  Level Cleveland Center
09:43PM 40.4225 -78.2197 99° East 526 605 39,000  Level Cleveland Center
09:44PM 40.3989 -78.0306 99° East 530 610 39,000 -720 Level New York Center
09:45PM 40.3747 -77.8408 99° East 533 613 37,600 -2,100 Descending New York Center
09:46PM 40.3489 -77.6558 100° East 521 600 34,800 -3,300 Descending New York Center
09:47PM 40.3183 -77.4192 100° East 546 628 30,900 -3,300 Descending New York Center
09:48PM 40.2950 -77.2506 100° East 546 628 28,100 -2,760 Descending New York Center
09:49PM 40.2700 -77.0606 100° East 530 610 25,300 -2,880 Descending New York Center
09:50PM 40.2408 -76.8542 100° East 510 587 22,400 -2,580 Descending New York Center
09:51PM 40.2158 -76.6797 101° East 491 565 20,100 -1,920 Descending New York Center
09:52PM 40.1944 -76.5144 100° East 447 514 18,500 -1,860 Descending New York Center
09:53PM 40.1719 -76.3656 101° East 401 461 16,400 -2,460 Descending New York Center
09:54PM 40.1508 -76.2222 101° East 388 447 13,600 -2,400 Descending New York Center
09:55PM 40.1328 -76.0939 100° East 376 433 11,600 -1,620 Descending New York Center
09:56PM 40.1144 -75.9758 101° East 313 360 10,400 -1,380 Descending New York Center
09:57PM 40.0989 -75.8669 101° East 301 346 8,900 -1,440 Descending New York Center
09:58PM 40.0572 -75.7875 124° Southeast 262 302 7,500 -1,320 Descending New York Center
09:59PM 40.0139 -75.7147 128° Southeast 251 289 6,300 -1,140 Descending New York Center
10:01PM 39.9742 -75.6567 132° Southeast 215 247 5,200 -1,020 Descending New York Center
10:02PM 39.9286 -75.6094 142° Southeast 194 223 4,300 -900 Descending New York Center
10:03PM 39.8878 -75.5722 145° Southeast 181 208 3,500 -660 Descending New York Center
10:03PM 39.8500 -75.5500 156° South 176 203 3,100 -600 Descending Philadelphia TRACON
10:04PM 39.8333 -75.5000 113° Southeast 155 178 2,400 -480 Descending Philadelphia TRACON
10:06PM 39.8333 -75.4333 90° East 142 163 2,100 -240 Descending Philadelphia TRACON
10:07PM 39.8333 -75.3833 90° East 137 158 2,000 -420 Descending Philadelphia TRACON
10:08PM 39.8500 -75.3500 57° Northeast 105 121 1,300 -660 Descending Philadelphia TRACON
10:09PM 39.8500 -75.3167 90° East 113 130 700 -600 Descending Philadelphia TRACON